Startpagina
METAR-TAF:

METAR-TAF

Vliegvelden :

Gulkana, Alaska, Verenigde Staten

breedte: 62-09N, lengte: 145-27W, hoogte: 481 m

Actueel weer

Dit bericht is 34 minuten geleden gemaakt, om 16:53 UTC
Weinig wind
Temperatuur 3°C
Vochtigheid 70%
Druk 992 hPa
Zicht: 16.1 km
Onbewolkt

METAR: PAGK 181653Z AUTO 00000KT 10SM CLR 03/M02 A2928 RMK AO2 SLP931 T00331022 TSNO

Tijdstip: 09:27 (17:27 UTC)

Verwachting

Dit bericht is 5 uur en het 50 minuten geleden gemaakt, om 11:37 UTC
Verwachting geldig van 18 om 12 UTC tot 19 om 12 UTC
Wind 5 kt uit variabele richting
Zicht: 10 km
Weinig wolken op 5000 ft
Gebroken wolken op 10000 ft
Van 19 om 0900 UTC
Wind 10 kt uit het zuiden
Zicht: 10 km
Verspreide wolken op 4500 ft
Geheel bewolkt op 7000 ft
buien in de omgeving

TAF: PAGK 181137Z 1812/1912 VRB05KT P6SM FEW050 BKN100 FM190900 17010KT P6SM VCSH SCT045 OVC070

Waarnemingen en weersverwachtingen van meer dan 4000 vliegvelden (METAR en TAF).

De beschikbare stations zijn de gele en rode punten op de kaart.

Ga met uw muis naar het station om de naam te zien.

Klik dan om waarnemingen en weersverwachtingen te zien.

kaart wijzigen: klik op de groene knoppen met een zwart kruis om in te zoomen, op de groene knop met een streepje om uit te zoomen of op de groene pijlen voor aangrenzende kaarten.


METAR-TAF: